Data for 10/16/2010

Time Sea-Level Adjusted Pressure Absolute Pressure Temperature Relative Humidity Dew Point   
(mb) (inHg) (mb) (inHg) (C) (F) (%) (C) (F)
00:05 1024 30.24 853 25.19 5.7 42.2 50 -3.9 24.9
00:10 1024 30.24 853 25.19 5.4 41.8 50 -4 24.8
00:15 1024 30.24 853 25.19 5.4 41.7 50 -4.1 24.6
00:20 1024 30.24 853 25.19 5.3 41.6 51 -3.9 25
00:25 1024 30.24 853 25.19 5.2 41.3 52 -3.8 25.1
00:30 1024 30.24 853 25.19 4.7 40.4 56 -3.3 26
00:35 1024 30.24 853 25.19 3.9 39.1 55 -4.2 24.4
00:40 1024 30.24 853 25.19 4.2 39.5 53 -4.5 24
00:45 1024 30.24 853 25.19 4.5 40.1 52 -4.5 23.9
00:50 1024 30.24 853 25.19 4.5 40.1 52 -4.4 24.1
00:55 1024 30.24 853 25.19 4.6 40.4 50 -4.8 23.4
01:00 1024 30.24 853 25.19 4.6 40.3 52 -4.5 23.9
01:05 1024 30.24 853 25.19 4.2 39.6 53 -4.4 24.1
01:10 1024 30.24 853 25.19 4.2 39.5 55 -4 24.8
01:15 1024 30.24 853 25.19 4.2 39.6 56 -3.8 25.2
01:20 1024 30.24 853 25.19 4.6 40.2 55 -3.7 25.3
01:25 1024 30.24 853 25.19 4.7 40.4 55 -3.5 25.6
01:30 1024 30.24 853 25.19 4.7 40.4 55 -3.6 25.6
01:35 1024 30.24 853 25.19 4.6 40.3 56 -3.5 25.7
01:40 1024 30.24 853 25.19 4.6 40.3 55 -3.6 25.5
01:45 1023 30.21 853 25.19 4.8 40.7 54 -3.7 25.3
01:50 1023 30.21 853 25.19 4.9 40.8 54 -3.7 25.4
01:55 1023 30.21 853 25.19 4.9 40.8 54 -3.6 25.6
02:00 1023 30.21 853 25.19 4.8 40.7 55 -3.5 25.7
02:05 1023 30.21 853 25.19 4.7 40.5 56 -3.4 25.8
02:10 1023 30.21 853 25.19 4.7 40.5 56 -3.4 25.9
02:15 1023 30.21 853 25.19 4.6 40.3 56 -3.3 26
02:20 1023 30.21 853 25.19 4.5 40.1 57 -3.4 26
02:25 1023 30.21 853 25.19 4.4 39.9 57 -3.4 26
02:30 1023 30.21 853 25.19 4.2 39.6 58 -3.4 25.9
02:35 1023 30.21 852 25.16 4.2 39.5 58 -3.4 25.8
02:40 1023 30.21 852 25.16 4.1 39.3 58 -3.4 25.9
02:45 1023 30.21 852 25.16 4 39.2 58 -3.4 25.9
02:50 1023 30.21 852 25.16 3.9 39.1 59 -3.5 25.8
02:55 1023 30.21 852 25.16 3.9 39.1 59 -3.4 25.9
03:00 1023 30.21 852 25.16 3.9 39 59 -3.4 25.8
03:05 1023 30.21 852 25.16 3.8 38.9 59 -3.4 25.9
03:10 1023 30.21 852 25.16 3.8 38.8 59 -3.5 25.7
03:15 1023 30.21 852 25.16 3.8 38.9 59 -3.5 25.7
03:20 1023 30.21 852 25.16 3.9 38.9 58 -3.5 25.6
03:25 1023 30.21 852 25.16 3.8 38.9 59 -3.5 25.7
03:30 1023 30.21 852 25.16 3.8 38.8 59 -3.5 25.7
03:35 1023 30.21 852 25.16 3.8 38.8 59 -3.6 25.6
03:40 1023 30.21 852 25.16 3.8 38.8 59 -3.6 25.6
03:45 1023 30.21 852 25.16 3.8 38.8 59 -3.6 25.5
03:50 1023 30.21 852 25.16 3.7 38.6 59 -3.6 25.6
03:55 1023 30.21 852 25.16 3.6 38.5 59 -3.7 25.4
04:00 1023 30.21 852 25.16 3.6 38.5 59 -3.6 25.5
04:05 1023 30.21 852 25.16 3.4 38.2 60 -3.6 25.5
04:10 1023 30.21 852 25.16 3.4 38 60 -3.7 25.3
04:15 1023 30.21 852 25.16 3.3 38 59 -3.9 25
04:20 1023 30.21 852 25.16 3.4 38 59 -3.9 24.9
04:25 1023 30.21 852 25.16 3.4 38 58 -4.1 24.7
04:30 1023 30.21 852 25.16 3.4 38.1 58 -4.1 24.7
04:35 1023 30.21 852 25.16 3.3 38 59 -4 24.7
04:40 1023 30.21 852 25.16 3.2 37.8 59 -4.1 24.6
04:45 1023 30.21 852 25.16 3.2 37.8 58 -4.2 24.4
04:50 1023 30.21 852 25.16 3.2 37.8 58 -4.3 24.2
04:55 1023 30.21 852 25.16 3.2 37.7 58 -4.3 24.2
05:00 1023 30.21 852 25.16 3.2 37.7 58 -4.3 24.3
05:05 1023 30.21 852 25.16 3.1 37.6 58 -4.3 24.3
05:10 1023 30.21 852 25.16 3 37.5 58 -4.4 24.1
05:15 1023 30.21 852 25.16 3.1 37.5 58 -4.4 24
05:20 1023 30.21 852 25.16 3 37.4 58 -4.4 24.1
05:25 1023 30.21 852 25.16 3 37.4 58 -4.4 24
05:30 1023 30.21 852 25.16 3 37.4 58 -4.4 24
05:35 1023 30.21 852 25.16 3 37.3 59 -4.4 24.1
05:40 1023 30.21 852 25.16 2.9 37.2 59 -4.4 24.1
05:45 1023 30.21 852 25.16 2.9 37.3 59 -4.4 24.1
05:50 1023 30.21 852 25.16 3 37.4 59 -4.4 24.2
05:55 1023 30.21 852 25.16 2.9 37.3 59 -4.4 24
06:00 1023 30.21 852 25.16 2.9 37.3 59 -4.4 24.1
06:05 1023 30.21 852 25.16 2.9 37.2 59 -4.4 24
06:10 1023 30.21 852 25.16 3 37.4 58 -4.4 24.1
06:15 1023 30.21 852 25.16 3 37.5 58 -4.4 24.1
06:20 1023 30.21 852 25.16 3 37.4 58 -4.4 24.1
06:25 1022 30.18 852 25.16 3 37.3 59 -4.4 24.1
06:30 1022 30.18 852 25.16 2.9 37.3 58 -4.5 24
06:35 1022 30.18 851 25.13 2.9 37.3 58 -4.4 24
06:40 1022 30.18 852 25.16 2.9 37.3 58 -4.4 24
06:45 1022 30.18 852 25.16 2.9 37.3 58 -4.4 24
06:50 1022 30.18 852 25.16 2.9 37.2 59 -4.4 24
06:55 1022 30.18 852 25.16 2.9 37.2 59 -4.4 24
07:00 1022 30.18 851 25.13 2.9 37.2 58 -4.5 24
07:05 1022 30.18 851 25.13 3 37.4 58 -4.4 24.1
07:10 1022 30.18 852 25.16 3 37.3 59 -4.4 24.1
07:15 1022 30.18 852 25.16 3 37.3 59 -4.4 24.2
07:20 1022 30.18 852 25.16 3 37.3 59 -4.4 24.1
07:25 1022 30.18 852 25.16 2.9 37.2 59 -4.4 24.2
07:30 1022 30.18 852 25.16 2.9 37.2 59 -4.3 24.2
07:35 1022 30.18 852 25.16 2.8 37.1 59 -4.3 24.2
07:40 1022 30.18 851 25.13 2.8 37.1 59 -4.3 24.2
07:45 1022 30.18 851 25.13 2.8 37.1 59 -4.3 24.2
07:50 1022 30.18 852 25.16 2.8 37.1 60 -4.2 24.4
07:55 1022 30.18 851 25.13 2.8 37 60 -4.2 24.4
08:00 1022 30.18 851 25.13 2.8 37.1 59 -4.4 24.1
08:05 1022 30.18 851 25.13 2.9 37.2 59 -4.3 24.2
08:10 1022 30.18 852 25.16 2.9 37.2 59 -4.2 24.4
08:15 1022 30.18 852 25.16 2.9 37.2 59 -4.3 24.3
08:20 1022 30.18 852 25.16 2.9 37.2 59 -4.3 24.3
08:25 1022 30.18 852 25.16 2.9 37.2 60 -4.2 24.4
08:30 1023 30.21 852 25.16 2.9 37.2 59 -4.2 24.4
08:35 1022 30.18 852 25.16 3 37.3 59 -4.2 24.4
08:40 1022 30.18 852 25.16 3 37.4 59 -4.2 24.5
08:45 1022 30.18 852 25.16 3.1 37.5 59 -4.2 24.4
08:50 1022 30.18 852 25.16 3.1 37.6 59 -4.2 24.4
08:55 1022 30.18 851 25.13 3.2 37.7 58 -4.2 24.4
09:00 1022 30.18 851 25.13 3.2 37.8 58 -4.2 24.4
09:05 1023 30.21 852 25.16 3.3 37.9 58 -4.3 24.3
09:10 1023 30.21 852 25.16 3.3 38 57 -4.3 24.3
09:15 1023 30.21 852 25.16 3.5 38.3 57 -4.3 24.2
09:20 1023 30.21 852 25.16 3.7 38.7 56 -4.2 24.4
09:25 1023 30.21 852 25.16 3.8 38.9 56 -4.2 24.5
09:30 1023 30.21 853 25.19 3.9 39 55 -4.3 24.2
09:35 1024 30.24 853 25.19 4 39.2 55 -4.3 24.3
09:40 1023 30.21 853 25.19 4.1 39.3 54 -4.3 24.2
09:45 1024 30.24 853 25.19 4.1 39.3 55 -4.2 24.4
09:50 1024 30.24 853 25.19 4.1 39.4 55 -4.2 24.4
09:55 1024 30.24 853 25.19 4.2 39.6 54 -4.3 24.3
10:00 1023 30.21 853 25.19 4.4 39.9 54 -4.2 24.5
10:05 1024 30.24 853 25.19 4.5 40.1 54 -4.1 24.6
10:10 1024 30.24 853 25.19 4.4 40 54 -4.2 24.5
10:15 1024 30.24 853 25.19 4.4 40 54 -4.1 24.7
10:20 1024 30.24 853 25.19 4.6 40.2 53 -4.1 24.6
10:25 1024 30.24 853 25.19 4.7 40.5 54 -3.9 25
10:30 1024 30.24 853 25.19 4.7 40.5 55 -3.5 25.6
10:35 1024 30.24 853 25.19 4.7 40.4 57 -3.1 26.4
10:40 1024 30.24 853 25.19 4.7 40.5 59 -2.5 27.5
10:45 1024 30.24 853 25.19 4.7 40.5 60 -2.4 27.7
10:50 1023 30.21 853 25.19 4.6 40.4 62 -2 28.5
10:55 1023 30.21 853 25.19 4.6 40.2 66 -1.2 29.9
11:00 1023 30.21 853 25.19 4.6 40.3 69 -0.6 30.9
11:05 1023 30.21 853 25.19 4.5 40.1 71 -0.4 31.3
11:10 1023 30.21 853 25.19 4.4 40 72 -0.2 31.7
11:15 1023 30.21 853 25.19 4.4 39.8 70 -0.6 31
11:20 1023 30.21 853 25.19 4.2 39.6 73 -0.1 31.8
11:25 1023 30.21 852 25.16 4.2 39.5 74 -0 32
11:30 1023 30.21 852 25.16 4.1 39.4 76 0.3 32.5
11:35 1023 30.21 852 25.16 4.1 39.4 77 0.5 32.8
11:40 1023 30.21 852 25.16 4.1 39.4 79 0.8 33.4
11:45 1023 30.21 852 25.16 4.2 39.5 77 0.4 32.8
11:50 1023 30.21 852 25.16 4.2 39.5 77 0.6 33
11:55 1023 30.21 852 25.16 4.1 39.3 79 0.7 33.3
12:00 1023 30.21 852 25.16 4.1 39.4 81 1.1 33.9
12:05 1023 30.21 852 25.16 4.1 39.5 83 1.4 34.6
12:10 1023 30.21 852 25.16 4.2 39.6 83 1.6 34.8
12:15 1023 30.21 852 25.16 4.3 39.7 83 1.6 35
12:20 1023 30.21 852 25.16 4.4 39.8 85 2.1 35.7
12:25 1023 30.21 852 25.16 4.4 39.8 86 2.2 36
12:30 1023 30.21 852 25.16 4.4 40 86 2.3 36.2
12:35 1023 30.21 852 25.16 4.4 39.9 87 2.4 36.3
12:40 1023 30.21 852 25.16 4.5 40.1 88 2.6 36.7
12:45 1023 30.21 852 25.16 4.6 40.3 88 2.8 37
12:50 1023 30.21 852 25.16 4.7 40.5 88 3 37.4
12:55 1023 30.21 852 25.16 4.8 40.7 88 3 37.3
13:00 1023 30.21 852 25.16 4.9 40.9 90 3.4 38.1
13:05 1023 30.21 852 25.16 5.2 41.3 88 3.4 38.1
13:10 1022 30.18 852 25.16 5.3 41.6 89 3.6 38.5
13:15 1022 30.18 852 25.16 5.4 41.7 87 3.4 38.1
13:20 1022 30.18 852 25.16 5.5 41.9 88 3.6 38.5
13:25 1022 30.18 852 25.16 5.6 42.1 87 3.6 38.5
13:30 1022 30.18 851 25.13 5.7 42.3 88 3.8 38.9
13:35 1022 30.18 851 25.13 5.8 42.4 87 3.8 38.8
13:40 1022 30.18 851 25.13 6 42.7 86 3.8 38.9
13:45 1022 30.18 851 25.13 6.3 43.3 86 4.2 39.5
13:50 1022 30.18 851 25.13 6.7 44 84 4.2 39.6
13:55 1022 30.18 851 25.13 6.8 44.3 84 4.4 39.9
14:00 1022 30.18 851 25.13 7 44.6 84 4.5 40
14:05 1022 30.18 851 25.13 7.3 45.1 82 4.5 40
14:10 1022 30.18 851 25.13 7.9 46.2 82 5.1 41.1
14:15 1022 30.18 851 25.13 8.2 46.7 82 5.3 41.6
14:20 1021 30.15 851 25.13 8.3 46.9 82 5.4 41.7
14:25 1021 30.15 850 25.1 8.2 46.8 82 5.3 41.5
14:30 1021 30.15 850 25.1 8.6 47.4 79 5.2 41.4
14:35 1021 30.15 850 25.1 8.4 47.1 80 5.1 41.3
14:40 1021 30.15 850 25.1 8.7 47.7 75 4.6 40.3
14:45 1021 30.15 850 25.1 8.8 47.8 73 4.2 39.5
14:50 1021 30.15 850 25.1 8.9 48.1 73 4.4 39.8
14:55 1021 30.15 850 25.1 9.1 48.4 67 3.4 38.1
15:00 1021 30.15 850 25.1 9.2 48.5 71 4.2 39.5
15:05 1021 30.15 850 25.1 9.6 49.2 69 4.2 39.6
15:10 1021 30.15 850 25.1 9.7 49.5 70 4.5 40.1
15:15 1021 30.15 850 25.1 10.2 50.3 68 4.6 40.2
15:20 1020 30.12 850 25.1 10.3 50.6 66 4.4 39.9
15:25 1020 30.12 850 25.1 10.1 50.1 68 4.4 39.9
15:30 1020 30.12 850 25.1 10.5 51 62 3.6 38.5
15:35 1020 30.12 849 25.07 10.6 51.1 63 3.8 38.8
15:40 1020 30.12 849 25.07 10.4 50.7 64 3.8 38.9
15:45 1020 30.12 849 25.07 10.3 50.5 66 4.2 39.5
15:50 1020 30.12 849 25.07 10.5 50.8 66 4.4 39.9
15:55 1020 30.12 849 25.07 10.5 50.9 66 4.5 40.1
16:00 1020 30.12 849 25.07 10.7 51.2 66 4.6 40.3
16:05 1020 30.12 849 25.07 10.7 51.2 66 4.6 40.4
16:10 1020 30.12 849 25.07 10.7 51.2 66 4.7 40.4
16:15 1020 30.12 849 25.07 10.9 51.5 66 4.8 40.6
16:20 1020 30.12 849 25.07 11 51.8 67 5.1 41.2
16:25 1020 30.12 849 25.07 11 51.7 68 5.3 41.5
16:30 1020 30.12 849 25.07 11 51.9 68 5.3 41.5
16:35 1020 30.12 849 25.07 11 51.8 67 5.3 41.5
16:40 1020 30.12 849 25.07 11 51.8 67 5 41.1
16:45 1019 30.09 849 25.07 10.9 51.6 67 5 41
16:50 1019 30.09 849 25.07 10.9 51.7 68 5.2 41.4
16:55 1019 30.09 849 25.07 11 51.7 68 5.3 41.5
17:00 1019 30.09 849 25.07 11 51.9 68 5.4 41.7
17:05 1019 30.09 849 25.07 11.1 51.9 68 5.4 41.8
17:10 1019 30.09 848 25.04 11 51.8 69 5.5 41.9
17:15 1019 30.09 848 25.04 11 51.7 68 5.4 41.7
17:20 1019 30.09 848 25.04 10.9 51.5 69 5.4 41.7
17:25 1019 30.09 848 25.04 10.8 51.4 68 5.1 41.3
17:30 1019 30.09 848 25.04 10.8 51.4 68 5.1 41.2
17:35 1019 30.09 848 25.04 10.8 51.4 68 5 41.1
17:40 1019 30.09 849 25.07 10.8 51.4 68 5.2 41.3
17:45 1019 30.09 849 25.07 10.8 51.4 69 5.3 41.6
17:50 1019 30.09 848 25.04 10.7 51.3 67 5 41
17:55 1019 30.09 848 25.04 10.9 51.6 69 5.4 41.7
18:00 1019 30.09 848 25.04 10.8 51.4 67 4.9 40.8
18:05 1019 30.09 848 25.04 10.9 51.7 68 5.2 41.4
18:10 1019 30.09 848 25.04 11 51.7 66 4.9 40.7
18:15 1019 30.09 848 25.04 11.1 51.9 66 5.1 41.2
18:20 1019 30.09 848 25.04 11 51.9 69 5.6 42.1
18:25 1019 30.09 848 25.04 10.9 51.6 70 5.7 42.3
18:30 1019 30.09 848 25.04 10.6 51.1 69 5.3 41.5
18:35 1019 30.09 848 25.04 10.6 51 72 5.7 42.2
18:40 1019 30.09 848 25.04 10.4 50.8 72 5.6 42
18:45 1019 30.09 848 25.04 10.4 50.8 70 5.3 41.5
18:50 1019 30.09 848 25.04 10.5 50.9 70 5.4 41.6
18:55 1019 30.09 848 25.04 10.5 50.8 69 5.1 41.2
19:00 1019 30.09 848 25.04 10.4 50.6 70 5.2 41.4
19:05 1019 30.09 848 25.04 10.3 50.5 69 5 41
19:10 1019 30.09 848 25.04 10.4 50.7 70 5.2 41.3
19:15 1019 30.09 848 25.04 10.4 50.6 71 5.4 41.7
19:20 1019 30.09 848 25.04 10.4 50.8 73 5.8 42.5
19:25 1020 30.12 849 25.07 10.2 50.4 77 6.4 43.6
19:30 1020 30.12 849 25.07 9.7 49.4 80 6.4 43.5
19:35 1020 30.12 849 25.07 9.2 48.6 82 6.4 43.4
19:40 1020 30.12 849 25.07 8.9 47.9 83 6.2 43.2
19:45 1020 30.12 849 25.07 8.7 47.6 84 6.2 43.2
19:50 1020 30.12 849 25.07 8.7 47.6 85 6.2 43.2
19:55 1020 30.12 850 25.1 8.6 47.5 84 6.1 42.9
20:00 1021 30.15 850 25.1 8.6 47.5 85 6.2 43.2
20:05 1021 30.15 850 25.1 8.5 47.4 86 6.4 43.5
20:10 1021 30.15 850 25.1 8.4 47 88 6.4 43.6
20:15 1021 30.15 850 25.1 8 46.5 90 6.5 43.8
20:20 1021 30.15 850 25.1 7.8 46.1 92 6.5 43.8
20:25 1021 30.15 850 25.1 7.6 45.6 93 6.5 43.7
20:30 1021 30.15 850 25.1 7.5 45.5 93 6.4 43.6
20:35 1021 30.15 850 25.1 7.5 45.5 93 6.4 43.6
20:40 1021 30.15 850 25.1 7.6 45.6 93 6.6 43.8
20:45 1021 30.15 850 25.1 7.7 45.8 93 6.5 43.8
20:50 1021 30.15 850 25.1 7.6 45.6 93 6.5 43.8
20:55 1021 30.15 850 25.1 7.5 45.5 93 6.5 43.6
21:00 1021 30.15 850 25.1 7.5 45.5 93 6.5 43.6
21:05 1021 30.15 850 25.1 7.5 45.4 93 6.4 43.6
21:10 1020 30.12 849 25.07 7.3 45.2 94 6.4 43.5
21:15 1020 30.12 849 25.07 7.3 45.1 93 6.3 43.3
21:20 1020 30.12 849 25.07 7.3 45.2 92 6.1 43
21:25 1020 30.12 849 25.07 7.4 45.4 91 6.1 43
21:30 1019 30.09 849 25.07 7.4 45.4 91 6 42.8
21:35 1019 30.09 849 25.07 7.4 45.4 91 6.1 42.9
21:40 1019 30.09 849 25.07 7.4 45.4 88 5.6 42
21:45 1019 30.09 849 25.07 7.7 45.8 86 5.5 41.8
21:50 1019 30.09 849 25.07 8 46.4 83 5.3 41.5
21:55 1020 30.12 849 25.07 8 46.5 85 5.7 42.2
22:00 1020 30.12 849 25.07 7.9 46.2 85 5.6 42.1
22:05 1020 30.12 849 25.07 8.4 47 75 4.1 39.5
22:10 1020 30.12 849 25.07 8.7 47.6 77 5 40.9
22:15 1020 30.12 849 25.07 8.6 47.5 76 4.7 40.5
22:20 1020 30.12 849 25.07 8.9 48 75 4.7 40.5
22:25 1020 30.12 849 25.07 9.1 48.4 75 4.9 40.8
22:30 1020 30.12 849 25.07 9.2 48.5 74 4.8 40.6
22:35 1020 30.12 849 25.07 9.2 48.6 72 4.4 39.9
22:40 1020 30.12 849 25.07 9.6 49.2 69 4.2 39.5
22:45 1020 30.12 849 25.07 9.8 49.6 66 3.9 39
22:50 1020 30.12 849 25.07 9.6 49.3 72 4.9 40.8
22:55 1020 30.12 849 25.07 9.2 48.6 76 5.3 41.5
23:00 1020 30.12 849 25.07 8.9 47.9 79 5.5 41.9
23:05 1020 30.12 849 25.07 8.6 47.4 79 5.2 41.4
23:10 1020 30.12 850 25.1 8.6 47.6 76 4.7 40.5
23:15 1020 30.12 849 25.07 8.8 47.8 77 5 41
23:20 1020 30.12 849 25.07 8.9 48 76 4.8 40.7
23:25 1020 30.12 849 25.07 9 48.2 75 4.7 40.5
23:30 1020 30.12 849 25.07 9 48.1 74 4.5 40.1
23:35 1020 30.12 849 25.07 9 48.1 71 4.1 39.4
23:40 1020 30.12 849 25.07 8.9 48.1 75 4.8 40.6
23:45 1020 30.12 849 25.07 8.8 47.8 76 4.8 40.6
23:50 1020 30.12 849 25.07 8.7 47.6 79 5.2 41.3
23:55 1020 30.12 849 25.07 8.3 46.9 80 5.1 41.1
24:00 1020 30.12 849 25.07 8.3 47 79 5 40.9